createdAt,value
2022-08-20T00:02:16.482Z,3.60
2022-08-20T00:04:45.462Z,4.00
2022-08-20T00:07:14.279Z,3.90
2022-08-20T00:09:42.979Z,3.83
2022-08-20T00:12:16.956Z,4.23
2022-08-20T00:14:45.278Z,3.87
2022-08-20T00:17:14.077Z,3.80
2022-08-20T00:19:42.326Z,3.50
2022-08-20T00:22:10.618Z,4.17
2022-08-20T00:24:38.878Z,4.50
2022-08-20T00:27:07.373Z,4.50
2022-08-20T00:29:37.105Z,3.87
2022-08-20T00:32:05.846Z,4.63
2022-08-20T00:34:34.247Z,4.13
2022-08-20T00:37:02.869Z,4.23
2022-08-20T00:39:31.019Z,4.27
2022-08-20T00:41:59.423Z,4.43
2022-08-20T00:44:28.187Z,5.07
2022-08-20T00:46:57.782Z,5.40
2022-08-20T00:49:28.363Z,4.93
2022-08-20T00:52:00.158Z,5.10
2022-08-20T00:54:34.850Z,4.60
2022-08-20T00:57:05.679Z,5.53
2022-08-20T00:59:36.215Z,4.83
2022-08-20T01:02:08.130Z,5.30
2022-08-20T01:04:37.936Z,6.30
2022-08-20T01:07:07.855Z,6.50
2022-08-20T01:09:58.116Z,6.20
2022-08-20T01:12:27.280Z,5.47
2022-08-20T01:14:56.841Z,5.23
2022-08-20T01:17:30.504Z,4.70
2022-08-20T01:20:02.968Z,5.50
2022-08-20T01:22:56.961Z,5.60
2022-08-20T01:25:34.227Z,5.40
2022-08-20T01:28:04.868Z,4.20
2022-08-20T01:30:33.837Z,5.00
2022-08-20T01:33:02.646Z,5.03
2022-08-20T01:35:31.222Z,4.80
2022-08-20T01:37:59.487Z,4.43
2022-08-20T01:40:45.727Z,4.47
2022-08-20T01:43:15.915Z,4.87
2022-08-20T01:45:45.637Z,5.60
2022-08-20T01:48:18.542Z,4.63
2022-08-20T01:50:52.714Z,5.30
2022-08-20T01:53:28.887Z,6.37
2022-08-20T01:55:57.125Z,5.97
2022-08-20T01:58:27.815Z,6.20
2022-08-20T02:00:56.124Z,6.53
2022-08-20T02:03:24.861Z,7.57
2022-08-20T02:05:53.457Z,6.50
2022-08-20T02:08:22.336Z,6.73
2022-08-20T02:10:50.824Z,7.60
2022-08-20T02:13:19.373Z,6.43
2022-08-20T02:15:49.052Z,6.70
2022-08-20T02:18:17.461Z,6.17
2022-08-20T02:20:47.106Z,6.43
2022-08-20T02:23:16.691Z,6.00
2022-08-20T02:25:48.386Z,6.40
2022-08-20T02:28:19.823Z,5.63
2022-08-20T02:30:51.942Z,5.80
2022-08-20T02:33:24.082Z,4.97
2022-08-20T02:35:56.902Z,5.67
2022-08-20T02:38:25.712Z,6.07
2022-08-20T02:40:54.206Z,6.60
2022-08-20T02:43:22.513Z,5.60
2022-08-20T02:45:52.134Z,6.53
2022-08-20T02:48:23.182Z,7.30
2022-08-20T02:50:55.156Z,7.07
2022-08-20T02:53:23.552Z,6.90
2022-08-20T02:55:52.205Z,7.43
2022-08-20T02:58:21.294Z,6.60
2022-08-20T03:00:51.670Z,6.47
2022-08-20T03:03:22.808Z,6.10
2022-08-20T03:05:54.462Z,5.60
2022-08-20T03:08:23.824Z,6.67
2022-08-20T03:10:53.303Z,7.07
2022-08-20T03:13:23.272Z,7.07
2022-08-20T03:15:58.830Z,6.73
2022-08-20T03:18:30.896Z,7.27
2022-08-20T03:20:59.101Z,7.40
2022-08-20T03:23:27.805Z,8.00
2022-08-20T03:25:56.375Z,6.90
2022-08-20T03:28:24.745Z,7.60
2022-08-20T03:30:56.462Z,6.80
2022-08-20T03:33:25.103Z,8.10
2022-08-20T03:35:53.370Z,6.23
2022-08-20T03:38:32.874Z,6.50
2022-08-20T03:41:03.123Z,6.80
2022-08-20T03:43:32.519Z,6.27
2022-08-20T03:46:02.505Z,6.07
2022-08-20T03:48:31.082Z,6.57
2022-08-20T03:51:00.963Z,6.27
2022-08-20T03:53:31.837Z,13.23
2022-08-20T03:56:04.431Z,20.43
2022-08-20T03:58:35.590Z,14.20
2022-08-20T04:01:07.814Z,11.00
2022-08-20T04:03:58.675Z,9.03
2022-08-20T04:06:27.882Z,7.57
2022-08-20T04:08:56.657Z,7.70
2022-08-20T04:11:25.259Z,6.70
2022-08-20T04:13:53.800Z,6.27
2022-08-20T04:16:24.059Z,5.73
2022-08-20T04:19:01.962Z,5.80
2022-08-20T04:21:33.076Z,5.37
2022-08-20T04:24:02.447Z,29.47
2022-08-20T04:26:31.141Z,21.43
2022-08-20T04:28:59.738Z,11.13
2022-08-20T04:31:33.070Z,7.30
2022-08-20T04:34:02.074Z,6.40
2022-08-20T04:36:30.546Z,5.10
2022-08-20T04:38:58.819Z,4.17
2022-08-20T04:41:27.172Z,4.40
2022-08-20T04:43:56.978Z,3.47
2022-08-20T04:46:29.024Z,4.10
2022-08-20T04:49:00.775Z,3.73
2022-08-20T04:51:29.745Z,3.30
2022-08-20T04:54:00.910Z,3.27
2022-08-20T04:56:31.971Z,4.10
2022-08-20T04:59:02.574Z,10.73
2022-08-20T05:01:32.423Z,11.50
2022-08-20T05:04:03.121Z,7.83
2022-08-20T05:06:32.812Z,6.30
2022-08-20T05:09:02.247Z,5.90
2022-08-20T05:11:34.584Z,5.93
2022-08-20T05:14:09.820Z,5.23
2022-08-20T05:16:39.218Z,5.17
2022-08-20T05:19:10.688Z,5.20
2022-08-20T05:21:39.405Z,5.10
2022-08-20T05:24:08.279Z,4.63
2022-08-20T05:26:37.305Z,4.80
2022-08-20T05:29:06.999Z,6.70
2022-08-20T05:31:36.268Z,13.00
2022-08-20T05:34:09.808Z,12.87
2022-08-20T05:36:41.364Z,11.60
2022-08-20T05:39:11.783Z,8.87
2022-08-20T05:41:41.227Z,9.60
2022-08-20T05:44:14.348Z,7.70
2022-08-20T05:46:45.261Z,8.60
2022-08-20T05:49:16.747Z,9.50
2022-08-20T05:51:46.764Z,10.93
2022-08-20T05:54:15.762Z,12.60
2022-08-20T05:56:44.439Z,13.03
2022-08-20T05:59:14.110Z,16.10
2022-08-20T06:01:43.937Z,16.60
2022-08-20T06:04:28.701Z,17.97
2022-08-20T06:07:02.954Z,20.97
2022-08-20T06:09:32.936Z,23.97
2022-08-20T06:12:02.997Z,20.77
2022-08-20T06:14:32.681Z,20.97
2022-08-20T06:17:13.418Z,21.00
2022-08-20T06:19:45.039Z,22.37
2022-08-20T06:22:19.068Z,21.27
2022-08-20T06:24:53.342Z,22.90
2022-08-20T06:27:21.907Z,24.80
2022-08-20T06:29:50.549Z,20.97
2022-08-20T06:32:19.941Z,20.27
2022-08-20T06:34:57.281Z,19.03
2022-08-20T06:37:31.322Z,19.80
2022-08-20T06:40:04.145Z,17.00
2022-08-20T06:42:32.640Z,16.67
2022-08-20T06:45:04.870Z,17.10
2022-08-20T06:47:33.830Z,17.70
2022-08-20T06:50:02.243Z,15.43
2022-08-20T06:52:52.253Z,15.60
2022-08-20T06:55:20.491Z,15.60
2022-08-20T06:57:48.972Z,15.40
2022-08-20T07:00:20.893Z,14.90
2022-08-20T07:02:49.432Z,14.23
2022-08-20T07:05:18.085Z,15.00
2022-08-20T07:07:51.142Z,16.00
2022-08-20T07:10:21.921Z,13.27
2022-08-20T07:12:51.134Z,14.37
2022-08-20T07:15:21.413Z,14.20
2022-08-20T07:17:58.754Z,13.83
2022-08-20T07:20:31.791Z,15.50
2022-08-20T07:23:02.261Z,19.10
2022-08-20T07:25:33.661Z,16.47
2022-08-20T07:28:04.273Z,15.07
2022-08-20T07:30:57.095Z,15.90
2022-08-20T07:33:28.525Z,15.07
2022-08-20T07:35:58.295Z,17.17
2022-08-20T07:38:30.863Z,13.90
2022-08-20T07:41:01.925Z,15.03
2022-08-20T07:43:33.359Z,15.33
2022-08-20T07:46:09.876Z,14.20
2022-08-20T07:48:40.610Z,15.27
2022-08-20T07:51:12.387Z,14.80
2022-08-20T07:53:43.074Z,14.77
2022-08-20T07:56:14.353Z,16.00
2022-08-20T07:58:50.505Z,13.80
2022-08-20T08:01:21.055Z,13.40
2022-08-20T08:03:50.827Z,13.37
2022-08-20T08:06:28.610Z,12.60
2022-08-20T08:09:05.862Z,12.27
2022-08-20T08:11:37.969Z,12.53
2022-08-20T08:14:09.652Z,11.70
2022-08-20T08:16:40.152Z,13.27
2022-08-20T08:19:11.992Z,14.33
2022-08-20T08:21:41.242Z,13.27
2022-08-20T08:24:14.351Z,13.60
2022-08-20T08:26:46.059Z,12.53
2022-08-20T08:29:14.917Z,11.50
2022-08-20T08:31:43.378Z,13.57
2022-08-20T08:34:11.794Z,13.67
2022-08-20T08:36:40.391Z,11.97
2022-08-20T08:39:10.316Z,13.73
2022-08-20T08:41:48.521Z,14.50
2022-08-20T08:44:23.279Z,15.53
2022-08-20T08:46:57.255Z,13.87
2022-08-20T08:49:37.717Z,14.90
2022-08-20T08:52:12.623Z,13.43
2022-08-20T08:54:47.044Z,15.43
2022-08-20T08:57:16.451Z,12.93
2022-08-20T08:59:58.219Z,11.70
2022-08-20T09:02:34.213Z,11.47
2022-08-20T09:05:07.237Z,11.03
2022-08-20T09:07:36.679Z,11.27
2022-08-20T09:10:08.630Z,11.60
2022-08-20T09:12:36.959Z,10.77
2022-08-20T09:15:06.489Z,13.47
2022-08-20T09:17:34.900Z,13.80
2022-08-20T09:20:03.866Z,11.77
2022-08-20T09:22:33.485Z,11.97
2022-08-20T09:25:03.608Z,12.40
2022-08-20T09:27:33.494Z,13.67
2022-08-20T09:30:02.100Z,14.47
2022-08-20T09:32:30.588Z,12.17
2022-08-20T09:34:59.904Z,13.17
2022-08-20T09:37:36.605Z,12.70
2022-08-20T09:40:08.046Z,11.83
2022-08-20T09:42:41.653Z,14.10
2022-08-20T09:45:11.487Z,15.23
2022-08-20T09:47:54.822Z,16.87
2022-08-20T09:50:32.047Z,14.50
2022-08-20T09:53:02.269Z,17.37
2022-08-20T09:55:35.154Z,15.57
2022-08-20T09:58:09.416Z,15.50
2022-08-20T10:00:38.143Z,15.20
2022-08-20T10:03:06.514Z,13.67
2022-08-20T10:05:34.892Z,13.70
2022-08-20T10:08:07.332Z,14.20
2022-08-20T10:10:35.824Z,14.17
2022-08-20T10:13:05.703Z,13.40
2022-08-20T10:15:34.634Z,16.90
2022-08-20T10:18:05.879Z,18.70
2022-08-20T10:20:35.100Z,18.57
2022-08-20T10:23:04.067Z,13.87
2022-08-20T10:25:32.811Z,13.33
2022-08-20T10:28:01.355Z,12.53
2022-08-20T10:30:31.143Z,12.77
2022-08-20T10:32:59.771Z,14.27
2022-08-20T10:35:29.168Z,12.50
2022-08-20T10:37:57.827Z,14.00
2022-08-20T10:40:26.611Z,11.40
2022-08-20T10:42:55.172Z,12.07
2022-08-20T10:45:25.294Z,10.67
2022-08-20T10:47:55.578Z,12.90
2022-08-20T10:50:24.590Z,14.20
2022-08-20T10:52:59.155Z,14.00
2022-08-20T10:55:27.966Z,13.50
2022-08-20T10:57:56.845Z,12.77
2022-08-20T11:00:25.665Z,12.37
2022-08-20T11:02:55.705Z,12.70
2022-08-20T11:05:24.375Z,13.83
2022-08-20T11:07:56.691Z,12.43
2022-08-20T11:10:27.037Z,12.57
2022-08-20T11:12:56.106Z,14.77
2022-08-20T11:15:25.215Z,12.53
2022-08-20T11:17:55.588Z,13.90
2022-08-20T11:20:26.418Z,14.27
2022-08-20T11:22:55.788Z,14.23
2022-08-20T11:25:24.567Z,13.47
2022-08-20T11:27:54.372Z,14.83
2022-08-20T11:30:26.179Z,16.47
2022-08-20T11:32:56.333Z,14.97
2022-08-20T11:35:42.227Z,12.00
2022-08-20T11:38:14.377Z,12.90
2022-08-20T11:40:43.379Z,12.70
2022-08-20T11:43:15.046Z,10.87
2022-08-20T11:45:45.471Z,10.23
2022-08-20T11:48:15.793Z,12.43
2022-08-20T11:50:44.427Z,12.60
2022-08-20T11:53:12.998Z,9.63
2022-08-20T11:55:43.539Z,11.20
2022-08-20T11:58:12.669Z,11.07
2022-08-20T12:00:41.373Z,11.47
2022-08-20T12:03:11.752Z,9.37
2022-08-20T12:05:44.390Z,11.37
2022-08-20T12:08:27.186Z,9.90
2022-08-20T12:10:57.438Z,10.37
2022-08-20T12:13:47.155Z,8.07
2022-08-20T12:16:14.798Z,10.57
2022-08-20T12:18:43.137Z,9.40
2022-08-20T12:21:13.479Z,9.57
2022-08-20T12:23:42.044Z,10.80
2022-08-20T12:26:10.891Z,11.07
2022-08-20T12:28:39.278Z,9.00
2022-08-20T12:31:07.831Z,7.83
2022-08-20T12:33:36.205Z,8.83
2022-08-20T12:36:06.120Z,6.70
2022-08-20T12:38:36.226Z,7.43
2022-08-20T12:41:05.247Z,7.43
2022-08-20T12:43:34.185Z,8.23
2022-08-20T12:46:02.545Z,9.03
2022-08-20T12:48:31.192Z,7.80
2022-08-20T12:50:59.826Z,6.73
2022-08-20T12:53:28.331Z,7.03
2022-08-20T12:55:58.122Z,9.03
2022-08-20T12:58:26.605Z,50.40
2022-08-20T13:00:56.665Z,36.97
2022-08-20T13:03:26.609Z,21.10
2022-08-20T13:05:56.430Z,13.80
2022-08-20T13:08:26.302Z,9.90
2022-08-20T13:10:55.956Z,8.30
2022-08-20T13:13:26.494Z,6.97
2022-08-20T13:15:54.931Z,7.27
2022-08-20T13:18:23.523Z,7.17
2022-08-20T13:20:52.198Z,6.30
2022-08-20T13:23:20.965Z,7.40
2022-08-20T13:25:49.566Z,6.33
2022-08-20T13:28:18.108Z,6.23
2022-08-20T13:30:47.931Z,6.40
2022-08-20T13:33:16.994Z,6.27
2022-08-20T13:35:45.544Z,4.27
2022-08-20T13:38:14.593Z,6.00
2022-08-20T13:40:43.300Z,5.30
2022-08-20T13:43:16.024Z,4.90
2022-08-20T13:45:44.489Z,5.60
2022-08-20T13:48:15.215Z,5.57
2022-08-20T13:50:47.383Z,5.07
2022-08-20T13:53:20.002Z,6.67
2022-08-20T13:55:50.099Z,5.80
2022-08-20T13:58:18.970Z,5.43
2022-08-20T14:00:50.220Z,5.67
2022-08-20T14:03:25.525Z,5.57
2022-08-20T14:05:54.846Z,4.50
2022-08-20T14:08:24.881Z,5.10
2022-08-20T14:10:54.093Z,4.63
2022-08-20T14:13:25.901Z,5.43
2022-08-20T14:15:57.261Z,5.87
2022-08-20T14:18:30.916Z,4.87
2022-08-20T14:21:02.817Z,6.03
2022-08-20T14:23:36.863Z,4.90
2022-08-20T14:26:11.833Z,4.33
2022-08-20T14:28:42.714Z,6.37
2022-08-20T14:31:12.746Z,4.70
2022-08-20T14:33:44.727Z,23.60
2022-08-20T14:36:17.570Z,39.57
2022-08-20T14:38:48.618Z,21.93
2022-08-20T14:41:17.109Z,14.03
2022-08-20T14:43:45.809Z,9.20
2022-08-20T14:46:14.543Z,6.37
2022-08-20T14:48:44.476Z,6.03
2022-08-20T14:51:20.686Z,5.10
2022-08-20T14:53:49.236Z,5.20
2022-08-20T14:56:18.194Z,4.00
2022-08-20T14:58:46.856Z,4.70
2022-08-20T15:01:15.463Z,4.13
2022-08-20T15:03:45.399Z,4.10
2022-08-20T15:06:21.668Z,4.90
2022-08-20T15:08:50.929Z,5.00
2022-08-20T15:11:19.474Z,4.63
2022-08-20T15:13:47.963Z,4.17
2022-08-20T15:16:16.700Z,4.83
2022-08-20T15:18:46.562Z,4.67
2022-08-20T15:21:21.828Z,5.00
2022-08-20T15:23:50.876Z,4.57
2022-08-20T15:26:19.369Z,3.77
2022-08-20T15:28:47.725Z,3.63
2022-08-20T15:31:16.474Z,3.73
2022-08-20T15:33:46.393Z,4.73
2022-08-20T15:36:14.911Z,4.50
2022-08-20T15:38:43.470Z,4.03
2022-08-20T15:41:13.294Z,4.63
2022-08-20T15:43:42.869Z,4.60
2022-08-20T15:46:14.272Z,6.07
2022-08-20T15:48:49.993Z,4.73
2022-08-20T15:51:26.566Z,5.27
2022-08-20T15:54:03.104Z,4.70
2022-08-20T15:56:53.981Z,5.03
2022-08-20T15:59:50.834Z,4.83
2022-08-20T16:02:45.966Z,4.63
2022-08-20T16:05:30.542Z,4.43
2022-08-20T16:08:15.721Z,4.27
2022-08-20T16:11:01.960Z,4.53
2022-08-20T16:13:40.920Z,4.43
2022-08-20T16:16:17.531Z,4.93
2022-08-20T16:18:54.886Z,6.30
2022-08-20T16:21:32.214Z,5.07
2022-08-20T16:24:06.105Z,4.60
2022-08-20T16:26:58.266Z,7.63
2022-08-20T16:29:46.963Z,5.80
2022-08-20T16:32:27.460Z,5.53
2022-08-20T16:35:00.423Z,7.47
2022-08-20T16:37:38.450Z,7.27
2022-08-20T16:40:20.291Z,8.43
2022-08-20T16:42:51.812Z,7.80
2022-08-20T16:45:25.510Z,16.33
2022-08-20T16:47:55.657Z,15.77
2022-08-20T16:50:28.789Z,10.60
2022-08-20T16:52:58.877Z,9.60
2022-08-20T16:55:27.858Z,7.53
2022-08-20T16:57:56.577Z,5.87
2022-08-20T17:00:29.601Z,5.60
2022-08-20T17:03:00.184Z,4.97
2022-08-20T17:05:31.683Z,4.40
2022-08-20T17:08:05.404Z,3.63
2022-08-20T17:10:37.506Z,3.73
2022-08-20T17:13:23.555Z,3.20
2022-08-20T17:15:59.063Z,3.40
2022-08-20T17:18:30.250Z,3.50
2022-08-20T17:21:03.177Z,2.87
2022-08-20T17:23:54.591Z,3.70
2022-08-20T17:26:29.350Z,3.37
2022-08-20T17:29:02.389Z,2.80
2022-08-20T17:31:38.571Z,3.47
2022-08-20T17:34:15.142Z,4.40
2022-08-20T17:36:52.798Z,3.53
2022-08-20T17:39:24.939Z,3.50
2022-08-20T17:41:58.623Z,3.60
2022-08-20T17:44:33.974Z,4.13
2022-08-20T17:47:07.787Z,3.63
2022-08-20T17:49:53.235Z,3.27
2022-08-20T17:52:37.699Z,3.77
2022-08-20T17:55:12.618Z,5.27
2022-08-20T17:57:44.922Z,16.07
2022-08-20T18:00:18.253Z,13.33
2022-08-20T18:02:46.514Z,9.80
2022-08-20T18:05:20.439Z,8.83
2022-08-20T18:08:11.564Z,6.40
2022-08-20T18:10:48.203Z,5.13
2022-08-20T18:13:20.848Z,4.60
2022-08-20T18:15:54.648Z,4.47
2022-08-20T18:18:37.604Z,4.00
2022-08-20T18:21:56.096Z,4.30
2022-08-20T18:24:30.321Z,4.20
2022-08-20T18:27:09.077Z,4.07
2022-08-20T18:29:42.681Z,4.03
2022-08-20T18:32:26.451Z,3.30
2022-08-20T18:34:55.056Z,3.97
2022-08-20T18:37:29.015Z,3.20
2022-08-20T18:40:10.672Z,3.23
2022-08-20T18:42:40.570Z,3.40
2022-08-20T18:45:10.460Z,3.60
2022-08-20T18:47:45.285Z,4.13
2022-08-20T18:50:25.264Z,3.20
2022-08-20T18:53:10.048Z,3.67
2022-08-20T18:55:43.115Z,3.27
2022-08-20T18:58:29.121Z,2.50
2022-08-20T19:00:57.598Z,3.27
2022-08-20T19:03:32.162Z,3.10
2022-08-20T19:06:32.202Z,16.50
2022-08-20T19:09:06.916Z,13.13
2022-08-20T19:12:04.831Z,5.70
2022-08-20T19:15:01.377Z,3.90
2022-08-20T19:17:50.019Z,3.87
2022-08-20T19:20:22.655Z,3.40
2022-08-20T19:22:53.880Z,2.93
2022-08-20T19:25:25.901Z,3.20
2022-08-20T19:27:55.118Z,3.00
2022-08-20T19:30:38.831Z,2.67
2022-08-20T19:33:08.507Z,2.03
2022-08-20T19:35:37.899Z,2.47
2022-08-20T19:38:09.065Z,3.13
2022-08-20T19:40:40.132Z,3.43
2022-08-20T19:43:15.849Z,3.50
2022-08-20T19:45:49.977Z,2.30
2022-08-20T19:48:32.311Z,2.50
2022-08-20T19:51:14.144Z,2.70
2022-08-20T19:53:47.588Z,2.10
2022-08-20T19:56:19.705Z,3.00
2022-08-20T19:58:59.603Z,3.20
2022-08-20T20:01:29.667Z,3.13
2022-08-20T20:04:00.833Z,2.37
2022-08-20T20:06:30.240Z,3.70
2022-08-20T20:09:00.982Z,2.80
2022-08-20T20:11:35.444Z,2.73
2022-08-20T20:14:06.516Z,2.50
2022-08-20T20:16:37.631Z,2.73
2022-08-20T20:19:25.760Z,2.97
2022-08-20T20:22:18.694Z,2.40
2022-08-20T20:24:57.808Z,2.10
2022-08-20T20:27:28.774Z,2.40
2022-08-20T20:30:01.246Z,2.20
2022-08-20T20:32:33.771Z,2.47
2022-08-20T20:35:06.096Z,2.63
2022-08-20T20:37:49.358Z,2.40
2022-08-20T20:40:25.451Z,2.23
2022-08-20T20:43:05.003Z,2.70
2022-08-20T20:45:36.637Z,2.50
2022-08-20T20:48:18.684Z,2.27
2022-08-20T20:50:49.370Z,2.17
2022-08-20T20:53:55.409Z,2.67
2022-08-20T20:56:29.323Z,2.47
2022-08-20T20:59:00.318Z,2.33
2022-08-20T21:01:48.859Z,2.97
2022-08-20T21:04:20.192Z,3.03
2022-08-20T21:06:49.181Z,2.70
2022-08-20T21:09:18.748Z,3.23
2022-08-20T21:11:47.328Z,3.43
2022-08-20T21:14:15.930Z,2.33
2022-08-20T21:16:44.746Z,2.87
2022-08-20T21:19:13.873Z,2.83
2022-08-20T21:21:44.093Z,3.23
2022-08-20T21:24:13.136Z,2.80
2022-08-20T21:26:43.102Z,2.77
2022-08-20T21:29:14.676Z,3.50
2022-08-20T21:31:45.231Z,3.60
2022-08-20T21:34:16.351Z,2.77
2022-08-20T21:36:46.813Z,3.20
2022-08-20T21:39:16.164Z,2.63
2022-08-20T21:41:45.716Z,3.37
2022-08-20T21:44:21.325Z,3.17
2022-08-20T21:46:49.832Z,3.40
2022-08-20T21:49:19.564Z,3.00
2022-08-20T21:51:50.068Z,2.63
2022-08-20T21:54:19.607Z,3.03
2022-08-20T21:56:51.395Z,3.20
2022-08-20T21:59:23.638Z,2.80
2022-08-20T22:01:52.604Z,3.17
2022-08-20T22:04:21.977Z,3.03
2022-08-20T22:06:52.290Z,2.83
2022-08-20T22:09:21.589Z,3.67
2022-08-20T22:11:54.595Z,3.20
2022-08-20T22:14:25.031Z,3.10
2022-08-20T22:16:53.511Z,3.23
2022-08-20T22:19:22.221Z,2.50
2022-08-20T22:21:53.936Z,3.07
2022-08-20T22:24:23.027Z,3.40
2022-08-20T22:26:52.146Z,3.03
2022-08-20T22:29:21.711Z,3.23
2022-08-20T22:31:50.316Z,3.00
2022-08-20T22:34:21.252Z,3.03
2022-08-20T22:36:53.314Z,3.10
2022-08-20T22:39:22.157Z,3.47
2022-08-20T22:41:50.560Z,3.10
2022-08-20T22:44:20.100Z,3.40
2022-08-20T22:46:52.709Z,3.00
2022-08-20T22:49:27.836Z,3.63
2022-08-20T22:51:58.596Z,3.47
2022-08-20T22:54:27.587Z,3.70
2022-08-20T22:56:56.724Z,3.70
2022-08-20T22:59:25.442Z,3.53
2022-08-20T23:01:54.553Z,3.10
2022-08-20T23:04:27.031Z,4.00
2022-08-20T23:06:57.979Z,2.83
2022-08-20T23:09:31.201Z,4.13
2022-08-20T23:12:00.089Z,4.03
2022-08-20T23:14:29.067Z,3.60
2022-08-20T23:17:01.397Z,3.53
2022-08-20T23:19:29.910Z,3.57
2022-08-20T23:21:59.759Z,3.37
2022-08-20T23:24:28.194Z,3.30
2022-08-20T23:26:56.643Z,4.00
2022-08-20T23:29:26.209Z,4.13
2022-08-20T23:31:55.382Z,3.93
2022-08-20T23:34:23.808Z,3.60
2022-08-20T23:36:52.778Z,3.37
2022-08-20T23:39:23.607Z,3.70
2022-08-20T23:41:52.078Z,4.27
2022-08-20T23:44:25.095Z,3.47
2022-08-20T23:46:55.705Z,3.90
2022-08-20T23:49:23.937Z,3.20
2022-08-20T23:51:52.126Z,3.57
2022-08-20T23:54:20.404Z,3.70
2022-08-20T23:56:50.068Z,3.53
2022-08-20T23:59:18.371Z,2.90
